Time;durP1;ratioP1;P1;durP2;ratioP2;P2;SDS_P1;SDS_P2;PMS_P1;PMS_P2;Temp;Humidity;BMP_temperature;BMP_pressure;BME280_temperature;BME280_humidity;BME280_pressure;Samples;Min_cycle;Max_cycle;Signal;HPM_P1;HPM_P2
2023/06/03 00:01:28;;;;;;;2.72;0.30;;;12.30;99.90;;;;;;5056060;28;20107;-58
2023/06/03 00:03:54;;;;;;;2.95;0.30;;;12.30;99.90;;;;;;5055950;28;20056;-58
2023/06/03 00:06:20;;;;;;;1.02;0.40;;;12.30;99.90;;;;;;5055739;28;20056;-58
2023/06/03 00:08:46;;;;;;;1.00;0.30;;;12.30;99.90;;;;;;5055756;28;20049;-58
2023/06/03 00:11:13;;;;;;;1.53;0.47;;;12.30;99.90;;;;;;5055721;28;20049;-58
2023/06/03 00:13:39;;;;;;;1.63;0.40;;;12.20;99.90;;;;;;5055756;28;20052;-58
2023/06/03 00:16:05;;;;;;;0.35;0.20;;;12.20;99.90;;;;;;5055734;28;20060;-58
2023/06/03 00:18:32;;;;;;;0.95;0.25;;;12.20;99.90;;;;;;5038115;28;20135;-58
2023/06/03 00:20:58;;;;;;;0.90;0.20;;;12.20;99.90;;;;;;5055531;28;20037;-58
2023/06/03 00:23:24;;;;;;;0.70;0.30;;;12.20;99.90;;;;;;5055477;28;20052;-58
2023/06/03 00:25:49;;;;;;;2.40;0.50;;;12.20;99.90;;;;;;5054073;28;20135;-58
2023/06/03 00:28:15;;;;;;;1.65;0.28;;;12.20;99.90;;;;;;5055509;28;20045;-58
2023/06/03 00:30:41;;;;;;;0.60;0.30;;;12.20;99.90;;;;;;5055433;28;20041;-58
2023/06/03 00:33:07;;;;;;;0.73;0.20;;;12.20;99.90;;;;;;5055508;28;20151;-58
2023/06/03 00:35:33;;;;;;;0.65;0.30;;;12.20;99.90;;;;;;5054272;28;20493;-58
2023/06/03 00:37:59;;;;;;;0.52;0.28;;;12.20;99.90;;;;;;5055270;28;20137;-58
2023/06/03 00:40:25;;;;;;;0.98;0.30;;;12.10;99.90;;;;;;5054976;28;20492;-58
2023/06/03 00:42:51;;;;;;;1.73;0.30;;;12.10;99.90;;;;;;5055251;28;20120;-58
2023/06/03 00:45:17;;;;;;;1.52;0.45;;;12.10;99.90;;;;;;5055221;28;20348;-58
2023/06/03 00:47:43;;;;;;;0.52;0.22;;;12.10;99.90;;;;;;5053852;28;20152;-58
2023/06/03 00:50:10;;;;;;;1.55;0.40;;;12.00;99.90;;;;;;5054932;28;20044;-58
2023/06/03 00:52:38;;;;;;;2.45;0.35;;;12.00;99.90;;;;;;5055044;28;20053;-58
2023/06/03 00:55:04;;;;;;;1.48;0.40;;;12.00;99.90;;;;;;5054744;28;20053;-58
2023/06/03 00:57:30;;;;;;;0.88;0.32;;;12.00;99.90;;;;;;5053906;28;20106;-58
2023/06/03 00:59:56;;;;;;;1.00;0.30;;;11.90;99.90;;;;;;5053678;28;20037;-58
2023/06/03 01:02:23;;;;;;;1.60;0.40;;;11.90;99.90;;;;;;5054176;28;20041;-58
2023/06/03 01:04:51;;;;;;;0.70;0.25;;;11.90;99.90;;;;;;5053656;28;20476;-58
2023/06/03 01:07:29;;;;;;;0.90;0.30;;;11.90;99.90;;;;;;5054645;28;20080;-58
2023/06/03 01:10:21;;;;;;;1.13;0.50;;;11.90;99.90;;;;;;5053751;28;20044;-58
2023/06/03 01:13:18;;;;;;;1.60;0.47;;;11.90;99.90;;;;;;5048806;28;20052;-58
2023/06/03 01:15:46;;;;;;;2.17;0.40;;;11.90;99.90;;;;;;5048847;28;20140;-58
2023/06/03 01:18:14;;;;;;;0.90;0.40;;;11.90;99.90;;;;;;5054547;28;20551;-58
2023/06/03 01:20:42;;;;;;;1.45;0.65;;;11.80;99.90;;;;;;5053507;28;20484;-58
2023/06/03 01:23:28;;;;;;;0.60;0.30;;;11.80;99.90;;;;;;5054448;28;20084;-58
2023/06/03 01:25:56;;;;;;;1.05;0.40;;;11.80;99.90;;;;;;5054646;28;20135;-58
2023/06/03 01:28:23;;;;;;;0.98;0.30;;;11.80;99.90;;;;;;5054159;28;20551;-58
2023/06/03 01:30:50;;;;;;;0.93;0.30;;;11.80;99.90;;;;;;5054247;28;20048;-58
2023/06/03 01:33:18;;;;;;;1.48;0.50;;;11.80;99.90;;;;;;5054257;28;20106;-58
2023/06/03 01:35:46;;;;;;;2.78;0.45;;;11.80;99.90;;;;;;5054211;28;20061;-58
2023/06/03 01:38:12;;;;;;;1.10;0.40;;;11.70;99.90;;;;;;5054173;28;20049;-58
2023/06/03 01:40:39;;;;;;;1.63;0.50;;;11.70;99.90;;;;;;5054069;28;20033;-58
2023/06/03 01:43:05;;;;;;;1.15;0.52;;;11.80;99.90;;;;;;5052791;28;20045;-58
2023/06/03 01:45:31;;;;;;;1.60;0.60;;;11.70;99.90;;;;;;5054434;28;20489;-58
2023/06/03 01:47:57;;;;;;;1.80;0.45;;;11.60;99.90;;;;;;5053991;28;20049;-58
2023/06/03 01:50:23;;;;;;;2.22;0.70;;;11.60;99.90;;;;;;5054159;28;20048;-58
2023/06/03 01:52:49;;;;;;;1.40;0.45;;;11.60;99.90;;;;;;5052833;28;20182;-58
2023/06/03 01:55:15;;;;;;;0.80;0.38;;;11.50;99.90;;;;;;5053736;28;20049;-58
2023/06/03 01:57:41;;;;;;;0.52;0.30;;;11.50;99.90;;;;;;5053809;28;20136;-58
2023/06/03 02:00:09;;;;;;;1.35;0.40;;;11.40;99.90;;;;;;5054121;28;20049;-58
2023/06/03 02:02:35;;;;;;;1.25;0.47;;;11.30;99.90;;;;;;5053823;28;20407;-58
2023/06/03 02:05:01;;;;;;;2.80;0.73;;;11.30;99.90;;;;;;5053786;28;20045;-58
2023/06/03 02:07:30;;;;;;;0.70;0.30;;;11.20;99.90;;;;;;5053605;28;20037;-58
2023/06/03 02:09:55;;;;;;;2.58;0.47;;;11.20;99.90;;;;;;5053548;28;20044;-58
2023/06/03 02:12:21;;;;;;;1.35;0.40;;;11.20;99.90;;;;;;5053591;28;20097;-58
2023/06/03 02:14:47;;;;;;;1.95;0.50;;;11.20;99.90;;;;;;5052643;28;20122;-58
2023/06/03 02:17:15;;;;;;;0.85;0.30;;;11.10;99.90;;;;;;5053569;28;20190;-58
2023/06/03 02:19:41;;;;;;;1.33;0.50;;;11.10;99.90;;;;;;5053533;28;20080;-58
2023/06/03 02:22:06;;;;;;;1.87;0.40;;;11.10;99.90;;;;;;5053822;28;20091;-58
2023/06/03 02:24:32;;;;;;;1.27;0.50;;;11.10;99.90;;;;;;5053341;28;20395;-57
2023/06/03 02:27:01;;;;;;;1.20;0.50;;;11.10;99.90;;;;;;5053245;28;20064;-58
2023/06/03 02:29:28;;;;;;;1.83;0.45;;;11.10;99.90;;;;;;5053395;28;20437;-58
2023/06/03 02:31:54;;;;;;;0.43;0.30;;;11.10;99.90;;;;;;5053421;28;20049;-58
2023/06/03 02:34:20;;;;;;;;;;;11.10;99.90;;;;;;5053789;28;20170;-58
2023/06/03 02:36:46;;;;;;;1.90;0.52;;;11.10;99.90;;;;;;5053506;28;20398;-58
2023/06/03 02:39:13;;;;;;;1.63;0.43;;;11.10;99.90;;;;;;5053273;28;20080;-58
2023/06/03 02:41:42;;;;;;;0.68;0.30;;;11.10;99.90;;;;;;5053355;28;20056;-58
2023/06/03 02:44:08;;;;;;;1.17;0.40;;;11.10;99.90;;;;;;5053370;28;20049;-58
2023/06/03 02:46:34;;;;;;;2.42;0.63;;;11.00;99.90;;;;;;5053261;28;20045;-58
2023/06/03 02:49:03;;;;;;;1.65;0.50;;;11.00;99.90;;;;;;5053064;28;20496;-58
2023/06/03 02:51:29;;;;;;;0.75;0.40;;;11.00;99.90;;;;;;5052117;28;20045;-58
2023/06/03 02:53:56;;;;;;;0.57;0.30;;;10.90;99.90;;;;;;5052986;28;20400;-58
2023/06/03 02:56:22;;;;;;;1.80;0.47;;;10.90;99.90;;;;;;5053228;28;20055;-58
2023/06/03 02:58:48;;;;;;;;;;;10.90;99.90;;;;;;5053560;28;20450;-58
2023/06/03 03:01:14;;;;;;;1.73;0.50;;;10.90;99.90;;;;;;5069068;28;19924;-58
2023/06/03 03:03:41;;;;;;;1.67;0.50;;;10.90;99.90;;;;;;5053303;28;20067;-58
2023/06/03 03:06:08;;;;;;;1.38;0.50;;;10.90;99.90;;;;;;5052093;28;20284;-58
2023/06/03 03:08:34;;;;;;;2.00;0.55;;;10.90;99.90;;;;;;5052840;28;20452;-58
2023/06/03 03:11:00;;;;;;;3.15;0.50;;;10.90;99.90;;;;;;5051915;28;20072;-58
2023/06/03 03:13:26;;;;;;;1.90;0.60;;;10.90;99.90;;;;;;5051937;28;20587;-58
2023/06/03 03:15:51;;;;;;;1.55;0.50;;;10.90;99.90;;;;;;5052909;28;20283;-58
2023/06/03 03:18:17;;;;;;;1.63;0.40;;;10.90;99.90;;;;;;5053158;28;20055;-58
2023/06/03 03:20:43;;;;;;;1.65;0.55;;;10.90;99.90;;;;;;5053114;28;20049;-58
2023/06/03 03:23:12;;;;;;;1.42;0.50;;;10.90;99.90;;;;;;5052924;28;20392;-58
2023/06/03 03:25:38;;;;;;;0.73;0.35;;;10.90;99.90;;;;;;5053486;28;20061;-57
2023/06/03 03:28:04;;;;;;;1.60;0.50;;;10.90;99.90;;;;;;5056567;28;20174;-58
2023/06/03 03:30:30;;;;;;;2.28;0.45;;;10.90;99.90;;;;;;5055284;28;20738;-58
2023/06/03 03:32:58;;;;;;;1.13;0.53;;;10.90;99.90;;;;;;5055650;28;20127;-57
2023/06/03 03:35:25;;;;;;;0.95;0.35;;;10.90;99.90;;;;;;5056552;28;20045;-57
2023/06/03 03:38:17;;;;;;;0.82;0.32;;;10.90;99.90;;;;;;5056351;28;20144;-57
2023/06/03 03:40:43;;;;;;;1.05;0.40;;;10.90;99.90;;;;;;5053611;28;20077;-57
2023/06/03 03:43:15;;;;;;;1.40;0.50;;;10.90;99.90;;;;;;5056347;28;20052;-57
2023/06/03 03:45:40;;;;;;;2.17;0.50;;;10.90;99.90;;;;;;5056399;28;20080;-57
2023/06/03 03:48:12;;;;;;;1.27;0.40;;;10.90;99.90;;;;;;5056264;28;20142;-57
2023/06/03 03:50:45;;;;;;;0.95;0.40;;;10.90;99.90;;;;;;5055046;28;20366;-57
2023/06/03 03:53:21;;;;;;;0.77;0.30;;;10.90;99.90;;;;;;5056232;28;20044;-57
2023/06/03 03:55:51;;;;;;;1.27;0.40;;;10.90;99.90;;;;;;5056213;28;20036;-57
2023/06/03 03:58:29;;;;;;;2.10;0.50;;;10.80;99.90;;;;;;5054994;28;20539;-57
2023/06/03 04:01:00;;;;;;;1.75;0.60;;;10.80;99.90;;;;;;5055355;28;20045;-57
2023/06/03 04:03:27;;;;;;;1.30;0.50;;;10.80;99.90;;;;;;5055906;28;20037;-57
2023/06/03 04:05:53;;;;;;;2.53;0.47;;;10.80;99.90;;;;;;5055887;28;20048;-57
2023/06/03 04:08:32;;;;;;;1.88;0.57;;;10.80;99.90;;;;;;5055773;28;20053;-57
2023/06/03 04:10:59;;;;;;;3.90;0.60;;;10.80;99.90;;;;;;5055667;28;20404;-57
2023/06/03 04:13:25;;;;;;;1.42;0.47;;;10.70;99.90;;;;;;5055808;28;20472;-57
2023/06/03 04:15:51;;;;;;;3.73;0.70;;;10.80;99.90;;;;;;5055826;28;20056;-57
2023/06/03 04:18:19;;;;;;;2.97;0.50;;;10.70;99.90;;;;;;5056208;28;20120;-57
2023/06/03 04:20:45;;;;;;;1.80;0.57;;;10.70;99.90;;;;;;5055562;28;20037;-57
2023/06/03 04:23:17;;;;;;;1.10;0.40;;;10.70;99.90;;;;;;5054519;28;20392;-57
2023/06/03 04:25:43;;;;;;;2.13;0.60;;;10.70;99.90;;;;;;5054025;28;20059;-57
2023/06/03 04:28:12;;;;;;;2.33;0.70;;;10.70;99.90;;;;;;5055566;28;20052;-57
2023/06/03 04:30:38;;;;;;;3.05;0.93;;;10.80;99.90;;;;;;5055641;28;20041;-57
2023/06/03 04:33:04;;;;;;;;;;;10.80;99.90;;;;;;5055219;28;20059;-57
2023/06/03 04:35:30;;;;;;;3.05;0.50;;;10.80;99.90;;;;;;5055443;28;20280;-57
2023/06/03 04:37:59;;;;;;;1.07;0.40;;;10.90;99.90;;;;;;5052730;28;20503;-57
2023/06/03 04:40:26;;;;;;;1.85;0.50;;;11.00;99.90;;;;;;5055029;28;20480;-57
2023/06/03 04:42:52;;;;;;;1.35;0.45;;;11.00;99.90;;;;;;5055427;28;20052;-57
2023/06/03 04:45:21;;;;;;;1.75;0.73;;;11.10;99.90;;;;;;5038033;28;20396;-57
2023/06/03 04:47:47;;;;;;;1.40;0.40;;;11.10;99.90;;;;;;5055125;28;20049;-57
2023/06/03 04:50:19;;;;;;;1.90;0.60;;;11.20;99.90;;;;;;5055132;28;20123;-57
2023/06/03 04:52:47;;;;;;;1.48;0.47;;;11.20;99.90;;;;;;5054923;28;20049;-57
2023/06/03 04:55:13;;;;;;;1.55;0.60;;;11.30;99.90;;;;;;5054583;28;20429;-57
2023/06/03 04:57:39;;;;;;;1.17;0.50;;;11.30;99.90;;;;;;5055194;28;20049;-57
2023/06/03 05:00:09;;;;;;;1.03;0.50;;;11.40;99.90;;;;;;5053966;28;20526;-57
2023/06/03 05:02:35;;;;;;;1.67;0.50;;;11.40;99.90;;;;;;5053754;28;20052;-57
2023/06/03 05:05:01;;;;;;;2.10;0.50;;;11.50;99.90;;;;;;5054745;28;20484;-57
2023/06/03 05:07:27;;;;;;;1.90;0.63;;;11.60;99.90;;;;;;5054700;28;20132;-57
2023/06/03 05:09:52;;;;;;;5.53;0.93;;;11.70;99.90;;;;;;5054739;28;20041;-57
2023/06/03 05:12:22;;;;;;;1.83;0.50;;;12.00;99.90;;;;;;5054622;28;20053;-57
2023/06/03 05:14:48;;;;;;;4.18;0.55;;;12.10;99.90;;;;;;5054653;28;20060;-57
2023/06/03 05:17:13;;;;;;;1.52;0.50;;;12.20;99.90;;;;;;5054424;28;20049;-57
2023/06/03 05:19:39;;;;;;;2.30;0.47;;;12.30;99.90;;;;;;5053528;28;20499;-57
2023/06/03 05:22:05;;;;;;;3.33;0.73;;;12.40;99.90;;;;;;5053285;28;20056;-57
2023/06/03 05:24:30;;;;;;;1.63;0.60;;;12.50;99.90;;;;;;5054728;28;20045;-57
2023/06/03 05:26:56;;;;;;;1.50;0.40;;;12.60;99.90;;;;;;5054224;28;20060;-57
2023/06/03 05:29:22;;;;;;;1.30;0.50;;;12.60;99.90;;;;;;5054356;28;20047;-57
2023/06/03 05:31:47;;;;;;;2.83;0.70;;;12.70;99.90;;;;;;5054280;28;20396;-57
2023/06/03 05:34:14;;;;;;;1.10;0.40;;;12.70;99.90;;;;;;5053276;28;20044;-57
2023/06/03 05:36:39;;;;;;;;;;;12.80;99.90;;;;;;5054533;28;20045;-58
2023/06/03 05:39:05;;;;;;;1.63;0.60;;;12.80;99.90;;;;;;5053098;28;20019;-57
2023/06/03 05:41:33;;;;;;;2.20;0.60;;;12.90;99.90;;;;;;5053065;28;20049;-57
2023/06/03 05:43:58;;;;;;;1.08;0.40;;;13.00;99.90;;;;;;5054101;28;20079;-57
2023/06/03 05:46:24;;;;;;;0.87;0.47;;;13.20;99.90;;;;;;5052763;28;20060;-57
2023/06/03 05:48:51;;;;;;;2.27;0.70;;;13.20;99.90;;;;;;5053379;28;20081;-57
2023/06/03 05:51:16;;;;;;;2.92;0.50;;;13.30;99.90;;;;;;5053640;28;20107;-57
2023/06/03 05:53:43;;;;;;;3.07;0.57;;;13.40;99.90;;;;;;5054145;28;20476;-57
2023/06/03 05:56:10;;;;;;;2.25;0.77;;;13.40;99.90;;;;;;5053922;28;20056;-57
2023/06/03 05:58:38;;;;;;;1.27;0.40;;;13.50;99.90;;;;;;5053797;28;20123;-57
2023/06/03 06:01:04;;;;;;;1.70;0.50;;;13.50;99.90;;;;;;5053844;28;20107;-57
2023/06/03 06:03:29;;;;;;;2.08;0.70;;;13.60;99.90;;;;;;5053739;28;20045;-58
2023/06/03 06:05:55;;;;;;;1.83;0.50;;;13.60;99.90;;;;;;5053725;28;20442;-58
2023/06/03 06:08:21;;;;;;;1.10;0.47;;;13.70;99.90;;;;;;5053409;28;20049;-57
2023/06/03 06:10:47;;;;;;;1.42;0.40;;;13.70;99.90;;;;;;5053684;28;20052;-58
2023/06/03 06:13:13;;;;;;;2.37;0.50;;;13.80;99.90;;;;;;5053592;28;20045;-58
2023/06/03 06:15:38;;;;;;;0.93;0.40;;;13.90;99.90;;;;;;5053607;28;20045;-57
2023/06/03 06:18:04;;;;;;;1.63;0.63;;;13.90;99.90;;;;;;5052305;28;20287;-57
2023/06/03 06:20:30;;;;;;;1.40;0.50;;;14.00;99.90;;;;;;5053542;28;20041;-57
2023/06/03 06:22:55;;;;;;;1.67;0.50;;;14.00;99.90;;;;;;5052441;28;20045;-57
2023/06/03 06:25:21;;;;;;;1.27;0.47;;;14.10;99.90;;;;;;5053644;28;20067;-57
2023/06/03 06:27:47;;;;;;;2.25;0.60;;;14.10;99.90;;;;;;5053788;28;20045;-57
2023/06/03 06:30:16;;;;;;;3.50;1.00;;;14.20;99.90;;;;;;5053459;28;20114;-58
2023/06/03 06:32:50;;;;;;;1.27;0.40;;;14.30;99.90;;;;;;5053977;28;20045;-57
2023/06/03 06:35:19;;;;;;;0.98;0.30;;;14.40;99.90;;;;;;5053683;28;20486;-58
2023/06/03 06:37:46;;;;;;;1.17;0.32;;;14.50;99.90;;;;;;5053206;28;20484;-58
2023/06/03 06:40:20;;;;;;;2.67;0.60;;;14.60;99.90;;;;;;5052451;28;20065;-58
2023/06/03 06:42:46;;;;;;;1.85;0.45;;;14.70;99.90;;;;;;5053380;28;20048;-58
2023/06/03 06:45:27;;;;;;;1.27;0.40;;;14.70;99.90;;;;;;5053252;28;20456;-58
2023/06/03 06:48:02;;;;;;;0.95;0.30;;;14.80;99.90;;;;;;5036023;28;20051;-58
2023/06/03 06:50:46;;;;;;;1.40;0.50;;;14.90;99.90;;;;;;5052199;28;20040;-58
2023/06/03 06:53:13;;;;;;;1.30;0.40;;;15.00;99.90;;;;;;5053351;28;20127;-58
2023/06/03 06:55:46;;;;;;;1.77;0.50;;;15.20;99.90;;;;;;5053278;28;20049;-58
2023/06/03 06:58:11;;;;;;;1.15;0.20;;;15.30;99.90;;;;;;5053302;28;20091;-58
2023/06/03 07:00:38;;;;;;;1.02;0.30;;;15.40;99.90;;;;;;5053975;28;20036;-58
2023/06/03 07:03:08;;;;;;;1.23;0.30;;;15.60;99.90;;;;;;5057046;28;20088;-58
2023/06/03 07:05:33;;;;;;;0.82;0.40;;;15.60;99.90;;;;;;5056849;28;20052;-58
2023/06/03 07:07:59;;;;;;;1.35;0.30;;;15.70;99.90;;;;;;5056971;28;20056;-58
2023/06/03 07:10:25;;;;;;;2.20;0.60;;;15.80;99.90;;;;;;5055639;28;20045;-58
2023/06/03 07:12:55;;;;;;;1.10;0.40;;;15.90;99.90;;;;;;5056994;28;20374;-57
2023/06/03 07:15:22;;;;;;;1.85;0.50;;;16.00;99.90;;;;;;5056897;28;20500;-58
2023/06/03 07:17:52;;;;;;;1.63;0.50;;;16.10;99.90;;;;;;5056879;28;20450;-58
2023/06/03 07:20:20;;;;;;;0.43;0.20;;;16.30;99.90;;;;;;5056737;28;20045;-58
2023/06/03 07:22:46;;;;;;;3.15;0.40;;;16.50;99.90;;;;;;5056657;28;20048;-58
2023/06/03 07:25:44;;;;;;;1.95;0.52;;;16.80;99.90;;;;;;5056493;28;20057;-58
2023/06/03 07:28:12;;;;;;;12.90;3.55;;;17.20;99.90;;;;;;5056662;28;20052;-58
2023/06/03 07:30:39;;;;;;;3.28;1.25;;;17.40;99.90;;;;;;5056449;28;20076;-58
2023/06/03 07:33:07;;;;;;;1.27;0.40;;;17.20;99.90;;;;;;5056521;28;20484;-58
2023/06/03 07:35:37;;;;;;;0.77;0.40;;;17.00;99.90;;;;;;5056395;28;20053;-58
2023/06/03 07:38:04;;;;;;;1.55;0.32;;;16.70;99.90;;;;;;5056524;28;20444;-58
2023/06/03 07:40:40;;;;;;;0.82;0.52;;;16.60;99.90;;;;;;5056760;28;20102;-58
2023/06/03 07:43:07;;;;;;;0.85;0.20;;;16.30;99.90;;;;;;5056654;28;20045;-58
2023/06/03 07:45:34;;;;;;;0.93;0.35;;;16.20;99.90;;;;;;5055108;28;20052;-58
2023/06/03 07:48:05;;;;;;;1.17;0.40;;;16.00;99.90;;;;;;5056052;28;20492;-58
2023/06/03 07:50:32;;;;;;;0.93;0.30;;;15.90;99.90;;;;;;5056263;28;20124;-58
2023/06/03 07:53:05;;;;;;;0.57;0.20;;;15.80;99.90;;;;;;5056162;28;20190;-58
2023/06/03 07:55:39;;;;;;;1.17;0.50;;;15.80;99.90;;;;;;5056156;28;20099;-58
2023/06/03 07:58:05;;;;;;;1.65;0.45;;;15.90;99.90;;;;;;5056207;28;20126;-58
2023/06/03 08:00:33;;;;;;;0.35;0.30;;;15.90;99.90;;;;;;5037981;28;20052;-57
2023/06/03 08:03:00;;;;;;;0.82;0.38;;;16.10;99.90;;;;;;5056077;28;20055;-58
2023/06/03 08:05:36;;;;;;;1.30;0.40;;;16.10;99.90;;;;;;5055909;28;20137;-58
2023/06/03 08:08:09;;;;;;;1.30;0.40;;;16.10;99.90;;;;;;5055943;28;20044;-58
2023/06/03 08:10:35;;;;;;;1.75;0.40;;;16.10;99.90;;;;;;5055522;28;20464;-58
2023/06/03 08:13:05;;;;;;;1.02;0.30;;;16.10;99.90;;;;;;5054184;28;20378;-58
2023/06/03 08:15:35;;;;;;;2.20;0.50;;;16.00;99.90;;;;;;5055755;28;20049;-58
2023/06/03 08:18:05;;;;;;;0.63;0.20;;;16.00;99.90;;;;;;5055743;28;20098;-58
2023/06/03 08:20:33;;;;;;;0.85;0.28;;;16.10;99.90;;;;;;5054726;28;20048;-58
2023/06/03 08:22:59;;;;;;;1.48;0.50;;;16.10;99.90;;;;;;5055626;28;20049;-58
2023/06/03 08:25:25;;;;;;;1.08;0.30;;;16.10;99.90;;;;;;5055465;28;20048;-58
2023/06/03 08:27:52;;;;;;;0.80;0.32;;;16.20;99.90;;;;;;5055806;28;20057;-58
2023/06/03 08:30:20;;;;;;;0.73;0.30;;;16.20;99.90;;;;;;5054096;28;20045;-58
2023/06/03 08:32:46;;;;;;;0.90;0.50;;;16.20;99.90;;;;;;5055592;28;20045;-58
2023/06/03 08:35:13;;;;;;;1.60;0.40;;;16.30;99.90;;;;;;5055311;28;20041;-58
2023/06/03 08:37:39;;;;;;;0.85;0.30;;;16.30;99.90;;;;;;5055383;28;20132;-58
2023/06/03 08:40:07;;;;;;;1.75;0.40;;;16.40;99.90;;;;;;5055087;28;20079;-58
2023/06/03 08:42:43;;;;;;;1.02;0.30;;;16.50;99.90;;;;;;5055228;28;20044;-58
2023/06/03 08:45:13;;;;;;;2.08;0.63;;;16.60;99.90;;;;;;5055285;28;20045;-58
2023/06/03 08:48:00;;;;;;;1.55;0.28;;;16.60;99.90;;;;;;5054342;28;20037;-58
2023/06/03 08:50:27;;;;;;;1.92;0.40;;;16.70;99.90;;;;;;5053834;28;20040;-58
2023/06/03 08:52:54;;;;;;;1.27;0.40;;;16.80;99.50;;;;;;5053838;28;20063;-57
2023/06/03 08:55:21;;;;;;;1.33;0.25;;;16.80;98.90;;;;;;5054053;28;20079;-58
2023/06/03 08:57:59;;;;;;;0.75;0.25;;;16.80;98.70;;;;;;5055286;28;20389;-58
2023/06/03 09:00:26;;;;;;;0.77;0.30;;;16.90;98.30;;;;;;5054719;28;20488;-58
2023/06/03 09:02:53;;;;;;;0.98;0.30;;;17.00;98.30;;;;;;5054715;28;20045;-58
2023/06/03 09:05:22;;;;;;;1.58;0.30;;;16.90;98.00;;;;;;5054804;28;20060;-58
2023/06/03 09:07:50;;;;;;;1.02;0.30;;;17.00;97.40;;;;;;5054861;28;20489;-58
2023/06/03 09:10:17;;;;;;;0.85;0.30;;;17.00;96.90;;;;;;5054659;28;20123;-57
2023/06/03 09:12:44;;;;;;;1.02;0.30;;;17.10;96.30;;;;;;5054606;28;20562;-58
2023/06/03 09:15:14;;;;;;;0.80;0.22;;;17.10;96.30;;;;;;5054700;28;20049;-58
2023/06/03 09:17:41;;;;;;;0.75;0.30;;;17.10;96.10;;;;;;5054432;28;20107;-58
2023/06/03 09:20:08;;;;;;;1.15;0.30;;;17.10;96.00;;;;;;5053603;28;20048;-58
2023/06/03 09:22:35;;;;;;;0.80;0.30;;;17.20;95.10;;;;;;5053214;28;20068;-58
2023/06/03 09:25:02;;;;;;;0.40;0.22;;;17.20;95.00;;;;;;5053854;28;20084;-58
2023/06/03 09:27:28;;;;;;;1.90;0.40;;;17.20;94.60;;;;;;5054297;28;20504;-58
2023/06/03 09:29:54;;;;;;;0.60;0.30;;;17.20;94.00;;;;;;5054210;28;20128;-58
2023/06/03 09:32:20;;;;;;;;;;;17.20;93.40;;;;;;5054600;28;20139;-58
2023/06/03 09:34:46;;;;;;;0.55;0.22;;;17.30;94.00;;;;;;5053980;28;20390;-58
2023/06/03 09:37:12;;;;;;;0.40;0.22;;;17.30;93.80;;;;;;5054091;28;20128;-58
2023/06/03 09:39:38;;;;;;;1.08;0.30;;;17.30;93.60;;;;;;5054213;28;20049;-58
2023/06/03 09:42:05;;;;;;;1.65;0.50;;;17.30;93.50;;;;;;5054000;28;20504;-58
2023/06/03 09:44:57;;;;;;;0.60;0.20;;;17.30;93.30;;;;;;5054021;28;20531;-58
2023/06/03 09:47:22;;;;;;;0.85;0.40;;;17.40;93.50;;;;;;5034305;28;20143;-58
2023/06/03 09:50:03;;;;;;;0.70;0.20;;;17.40;93.10;;;;;;5054382;28;20131;-58
2023/06/03 09:52:33;;;;;;;0.60;0.30;;;17.50;92.10;;;;;;5054048;28;20590;-58
2023/06/03 09:55:02;;;;;;;0.30;0.20;;;17.60;91.40;;;;;;5053802;28;20051;-58
2023/06/03 09:57:28;;;;;;;0.75;0.20;;;17.60;90.80;;;;;;5053756;28;20404;-58
2023/06/03 10:00:07;;;;;;;0.93;0.28;;;17.60;88.80;;;;;;5053808;28;20049;-58
2023/06/03 10:02:44;;;;;;;1.95;0.30;;;17.60;88.60;;;;;;5053799;28;20072;-58
2023/06/03 10:05:29;;;;;;;0.63;0.17;;;17.60;88.20;;;;;;5052843;28;20397;-58
2023/06/03 10:07:56;;;;;;;0.70;0.20;;;17.70;88.00;;;;;;5053500;28;20051;-58
2023/06/03 10:10:23;;;;;;;0.68;0.22;;;17.80;88.10;;;;;;5054084;28;20045;-58
2023/06/03 10:12:50;;;;;;;0.68;0.25;;;17.80;87.50;;;;;;5053711;28;20055;-58
2023/06/03 10:15:37;;;;;;;1.20;0.40;;;17.80;88.10;;;;;;5053535;28;20480;-58
2023/06/03 10:18:05;;;;;;;2.80;0.35;;;18.00;87.40;;;;;;5053619;28;20041;-58
2023/06/03 10:20:41;;;;;;;0.68;0.20;;;18.00;87.10;;;;;;5053769;28;20044;-58
2023/06/03 10:23:09;;;;;;;2.75;0.30;;;18.10;86.70;;;;;;5053676;28;20048;-58
2023/06/03 10:25:45;;;;;;;0.80;0.30;;;18.20;87.00;;;;;;5052352;28;20540;-58
2023/06/03 10:28:12;;;;;;;1.13;0.40;;;18.30;86.70;;;;;;5052452;28;20378;-58
2023/06/03 10:30:41;;;;;;;2.00;0.30;;;18.40;86.00;;;;;;5052063;28;20302;-58
2023/06/03 10:33:08;;;;;;;2.97;0.30;;;18.50;85.40;;;;;;5053315;28;20551;-58
2023/06/03 10:35:36;;;;;;;1.95;0.35;;;18.60;84.70;;;;;;5055909;28;20049;-58
2023/06/03 10:38:06;;;;;;;0.93;0.30;;;18.70;84.20;;;;;;5057541;28;20055;-59
2023/06/03 10:40:32;;;;;;;0.55;0.20;;;18.70;83.40;;;;;;5056627;28;20503;-58
2023/06/03 10:42:58;;;;;;;1.10;0.30;;;18.80;81.70;;;;;;5040043;28;20061;-58
2023/06/03 10:45:26;;;;;;;1.13;0.40;;;18.80;81.00;;;;;;5057265;28;20056;-58
2023/06/03 10:47:59;;;;;;;0.95;0.30;;;18.90;81.30;;;;;;5057479;28;20044;-55
2023/06/03 10:50:24;;;;;;;0.82;0.30;;;19.00;80.30;;;;;;5057502;28;20044;-58
2023/06/03 10:53:05;;;;;;;1.40;0.40;;;19.10;80.20;;;;;;5056064;28;20044;-58
2023/06/03 10:55:43;;;;;;;1.52;0.40;;;19.10;79.40;;;;;;5055939;28;20045;-58
2023/06/03 10:58:25;;;;;;;0.73;0.28;;;19.20;78.10;;;;;;5057275;28;20049;-58
2023/06/03 11:01:04;;;;;;;0.88;0.20;;;19.30;75.70;;;;;;5057058;28;20400;-58
2023/06/03 11:04:03;;;;;;;0.77;0.30;;;19.30;76.60;;;;;;5057214;28;20095;-58
2023/06/03 11:06:29;;;;;;;2.13;0.30;;;19.50;77.50;;;;;;5034302;28;20060;-59
2023/06/03 11:09:02;;;;;;;1.55;0.40;;;19.60;77.20;;;;;;5057018;28;20045;-59
2023/06/03 11:11:48;;;;;;;0.70;0.30;;;19.60;76.80;;;;;;5057181;28;20128;-58
2023/06/03 11:14:27;;;;;;;1.05;0.30;;;19.70;76.50;;;;;;5056972;28;20522;-59
2023/06/03 11:16:58;;;;;;;0.63;0.20;;;19.80;75.70;;;;;;5056629;28;20511;-58
2023/06/03 11:19:35;;;;;;;0.40;0.20;;;19.90;75.80;;;;;;5055950;28;20045;-59
2023/06/03 11:22:07;;;;;;;0.70;0.20;;;20.00;74.90;;;;;;5056927;28;20080;-59
2023/06/03 11:24:38;;;;;;;0.68;0.20;;;20.10;74.30;;;;;;5056836;28;20495;-59
2023/06/03 11:27:10;;;;;;;0.47;0.20;;;20.10;74.30;;;;;;5056954;28;20403;-59
2023/06/03 11:29:56;;;;;;;1.77;0.30;;;20.20;74.00;;;;;;5056679;28;20048;-59
2023/06/03 11:32:26;;;;;;;2.28;0.30;;;20.30;73.20;;;;;;5056654;28;20055;-58
2023/06/03 11:35:11;;;;;;;1.67;0.20;;;20.30;71.80;;;;;;5056551;28;20037;-59
2023/06/03 11:37:46;;;;;;;0.93;0.25;;;20.30;72.50;;;;;;5056835;28;20496;-59
2023/06/03 11:40:17;;;;;;;1.55;0.40;;;20.30;72.50;;;;;;5057020;28;20084;-60
2023/06/03 11:42:48;;;;;;;1.13;0.30;;;20.40;72.40;;;;;;5056290;28;20052;-59
2023/06/03 11:45:29;;;;;;;0.75;0.20;;;20.40;72.30;;;;;;5055241;28;20088;-59
2023/06/03 11:48:03;;;;;;;0.47;0.32;;;20.50;71.30;;;;;;5055392;28;20465;-58
2023/06/03 11:50:31;;;;;;;1.42;0.30;;;20.50;69.60;;;;;;5056529;28;20485;-59
2023/06/03 11:52:57;;;;;;;0.80;0.20;;;20.50;70.40;;;;;;5056668;28;20107;-58
2023/06/03 11:55:28;;;;;;;0.73;0.30;;;20.60;69.90;;;;;;5056420;28;20045;-58
2023/06/03 11:57:56;;;;;;;1.30;0.40;;;20.50;69.00;;;;;;5056240;28;20128;-58
2023/06/03 12:00:22;;;;;;;1.85;0.40;;;20.40;68.70;;;;;;5055854;28;20084;-58
2023/06/03 12:02:48;;;;;;;0.95;0.25;;;20.30;68.30;;;;;;5056084;28;20084;-59
2023/06/03 12:05:15;;;;;;;0.70;0.30;;;20.30;68.40;;;;;;5056002;28;20056;-58
2023/06/03 12:07:43;;;;;;;0.75;0.30;;;20.30;68.40;;;;;;5055949;28;20041;-58
2023/06/03 12:10:11;;;;;;;1.50;0.40;;;20.30;68.70;;;;;;5055806;28;20044;-58
2023/06/03 12:12:52;;;;;;;1.02;0.30;;;20.30;69.40;;;;;;5055854;28;20053;-58
2023/06/03 12:15:18;;;;;;;0.60;0.40;;;20.40;69.40;;;;;;5055762;28;20451;-58
2023/06/03 12:17:44;;;;;;;0.28;0.20;;;20.50;70.10;;;;;;5054838;28;20056;-58
2023/06/03 12:20:21;;;;;;;0.90;0.30;;;20.60;69.90;;;;;;5055556;28;20040;-58
2023/06/03 12:22:48;;;;;;;1.73;0.30;;;20.60;68.60;;;;;;5055673;28;20074;-58
2023/06/03 12:25:21;;;;;;;0.60;0.20;;;20.50;68.90;;;;;;5054117;28;20108;-58
2023/06/03 12:27:48;;;;;;;1.05;0.20;;;20.50;68.70;;;;;;5055416;28;20122;-58
2023/06/03 12:30:29;;;;;;;0.70;0.20;;;20.60;69.20;;;;;;5054180;28;20048;-59
2023/06/03 12:32:57;;;;;;;1.02;0.30;;;20.60;69.30;;;;;;5055525;28;20040;-58
2023/06/03 12:35:27;;;;;;;0.52;0.30;;;20.70;69.60;;;;;;5054586;28;20052;-58
2023/06/03 12:38:06;;;;;;;0.65;0.28;;;20.80;68.90;;;;;;5055096;28;20049;-58
2023/06/03 12:40:34;;;;;;;0.47;0.20;;;20.80;68.10;;;;;;5055404;28;20569;-57
2023/06/03 12:43:00;;;;;;;0.68;0.20;;;20.80;68.90;;;;;;5055378;28;20049;-59
2023/06/03 12:45:26;;;;;;;1.27;0.30;;;20.90;69.00;;;;;;5055225;28;20504;-58
2023/06/03 12:47:53;;;;;;;0.98;0.40;;;20.90;68.70;;;;;;5054244;28;20064;-59
2023/06/03 12:50:20;;;;;;;1.75;0.30;;;21.00;68.40;;;;;;5054941;28;20041;-58
2023/06/03 12:52:50;;;;;;;0.70;0.30;;;21.00;68.50;;;;;;5055010;28;20055;-56
2023/06/03 12:55:17;;;;;;;0.88;0.28;;;21.10;68.40;;;;;;5055026;28;20055;-57
2023/06/03 12:57:48;;;;;;;1.30;0.28;;;21.10;67.80;;;;;;5054429;28;20142;-58